Attica, Kansas
Current Conditions -  °F | °C
As of 12:10 AM on Monday 26 Jan 2015 (Local Time) from KAVK Reporting Station
Clear Clear  
Wind Chill: -3°   Ceiling: Unl
Heat Index:   Visibility: 10mi
Dew Point: -6°   Wind: 5mph
Humidity: 64%   Direction: 260°W
Pressure: 30.18"   Gusts: NA
Location:  37.24°N, 98.23°W
Report Text: KAVK 260610Z AUTO 26004KT 10SM CLR 00/M06 A3018 RMK AO2
Loading
Personal Weather Stations






























Interactive Weather Map New forecast layout! Learn more

10-Day Weather Forecast

Advertisements
Track Severe Weather on mobile